createdAt,value
2022-08-25T00:06:44.313Z,23.00
2022-08-25T00:16:46.838Z,22.60
2022-08-25T00:26:52.352Z,22.20
2022-08-25T00:36:54.717Z,22.10
2022-08-25T00:47:00.016Z,21.90
2022-08-25T00:57:04.235Z,21.70
2022-08-25T01:07:06.977Z,21.60
2022-08-25T01:17:19.491Z,21.50
2022-08-25T01:27:21.397Z,21.50
2022-08-25T01:37:23.233Z,21.30
2022-08-25T01:47:26.252Z,21.20
2022-08-25T01:57:28.496Z,21.00
2022-08-25T02:07:30.476Z,20.90
2022-08-25T02:17:33.055Z,20.70
2022-08-25T02:27:35.030Z,20.50
2022-08-25T02:37:37.299Z,20.70
2022-08-25T02:47:39.596Z,20.40
2022-08-25T02:57:41.314Z,20.20
2022-08-25T03:07:43.493Z,20.10
2022-08-25T03:17:51.438Z,20.00
2022-08-25T03:27:53.979Z,20.00
2022-08-25T03:38:02.615Z,20.00
2022-08-25T03:48:04.641Z,19.70
2022-08-25T03:58:07.160Z,19.50
2022-08-25T04:08:09.631Z,19.60
2022-08-25T04:18:14.934Z,19.60
2022-08-25T04:28:16.779Z,19.60
2022-08-25T04:38:19.277Z,19.80
2022-08-25T04:48:21.634Z,19.90
2022-08-25T04:58:23.518Z,20.00
2022-08-25T05:08:26.267Z,20.20
2022-08-25T05:18:30.744Z,20.30
2022-08-25T05:28:32.886Z,20.40
2022-08-25T05:38:35.345Z,20.50
2022-08-25T05:48:37.660Z,20.60
2022-08-25T05:58:40.294Z,20.60
2022-08-25T06:08:42.852Z,20.90
2022-08-25T06:18:44.954Z,21.00
2022-08-25T06:28:47.279Z,21.10
2022-08-25T06:38:50.273Z,21.30
2022-08-25T06:48:52.954Z,21.60
2022-08-25T06:58:55.493Z,22.10
2022-08-25T07:08:57.579Z,22.70
2022-08-25T07:19:00.185Z,23.40
2022-08-25T07:29:03.097Z,24.30
2022-08-25T07:39:07.899Z,25.20
2022-08-25T07:49:16.931Z,26.00
2022-08-25T07:59:21.054Z,26.60
2022-08-25T08:09:22.835Z,27.00
2022-08-25T08:19:25.033Z,27.70
2022-08-25T08:29:26.938Z,27.80
2022-08-25T08:39:30.272Z,28.30
2022-08-25T08:49:55.293Z,28.80
2022-08-25T09:00:07.131Z,29.20
2022-08-25T09:10:09.573Z,29.60
2022-08-25T09:20:44.174Z,29.90
2022-08-25T09:31:29.139Z,30.40
2022-08-25T09:41:52.431Z,30.50
2022-08-25T09:51:55.834Z,31.10
2022-08-25T10:02:07.076Z,31.30
2022-08-25T10:12:33.933Z,31.70
2022-08-25T10:22:36.815Z,32.10
2022-08-25T10:32:59.279Z,32.60
2022-08-25T10:43:33.354Z,32.60
2022-08-25T10:54:03.853Z,33.00
2022-08-25T11:04:25.433Z,33.20
2022-08-25T11:14:43.176Z,33.50
2022-08-25T11:25:06.435Z,33.90
2022-08-25T11:35:13.873Z,33.00
2022-08-25T11:45:35.510Z,32.60
2022-08-25T11:56:05.396Z,33.50
2022-08-25T12:06:28.856Z,33.20
2022-08-25T12:17:06.676Z,32.40
2022-08-25T12:27:35.837Z,32.70
2022-08-25T12:37:57.153Z,33.10
2022-08-25T12:48:19.418Z,34.30
2022-08-25T12:58:22.632Z,34.50
2022-08-25T13:08:56.116Z,35.30
2022-08-25T13:19:04.353Z,35.50
2022-08-25T13:29:12.790Z,35.60
2022-08-25T13:39:55.032Z,35.60
2022-08-25T13:49:52.075Z,36.30
2022-08-25T14:00:04.012Z,34.80
2022-08-25T14:10:13.473Z,34.70
2022-08-25T14:20:35.711Z,34.10
2022-08-25T14:30:49.354Z,34.30
2022-08-25T14:40:55.346Z,34.80
2022-08-25T14:51:04.049Z,34.90
2022-08-25T15:01:09.838Z,33.50
2022-08-25T15:11:16.270Z,33.60
2022-08-25T15:21:19.932Z,34.00
2022-08-25T15:31:27.036Z,34.50
2022-08-25T15:41:31.531Z,34.70
2022-08-25T15:51:37.354Z,34.30
2022-08-25T16:01:43.401Z,33.40
2022-08-25T16:11:55.623Z,33.30
2022-08-25T16:22:01.857Z,33.30
2022-08-25T16:32:05.512Z,33.10
2022-08-25T16:42:08.674Z,33.00
2022-08-25T16:52:32.291Z,32.40
2022-08-25T17:02:41.095Z,32.20
2022-08-25T17:12:43.298Z,31.70
2022-08-25T17:22:46.631Z,31.50
2022-08-25T17:32:50.993Z,31.00
2022-08-25T17:42:53.651Z,30.60
2022-08-25T17:52:55.896Z,30.00
2022-08-25T18:02:59.815Z,29.40
2022-08-25T18:13:04.331Z,29.00
2022-08-25T18:23:09.634Z,28.50
2022-08-25T18:33:14.113Z,28.00
2022-08-25T18:43:17.115Z,27.70
2022-08-25T18:53:37.533Z,27.10
2022-08-25T19:03:52.932Z,26.80
2022-08-25T19:13:55.513Z,26.40
2022-08-25T19:23:57.434Z,26.10
2022-08-25T19:34:01.191Z,25.90
2022-08-25T19:44:04.993Z,25.70
2022-08-25T19:54:09.212Z,25.50
2022-08-25T20:04:12.816Z,25.40
2022-08-25T20:14:14.629Z,25.10
2022-08-25T20:24:34.959Z,25.00
2022-08-25T20:34:37.046Z,24.80
2022-08-25T20:44:42.247Z,24.70
2022-08-25T20:54:46.989Z,24.50
2022-08-25T21:04:53.430Z,24.50
2022-08-25T21:14:55.573Z,24.40
2022-08-25T21:24:57.790Z,24.30
2022-08-25T21:34:59.631Z,24.40
2022-08-25T21:45:01.728Z,24.00
2022-08-25T21:55:04.610Z,23.90
2022-08-25T22:05:09.264Z,23.70
2022-08-25T22:15:15.594Z,23.40
2022-08-25T22:25:18.094Z,23.60
2022-08-25T22:35:20.386Z,23.60
2022-08-25T22:45:23.316Z,23.60
2022-08-25T22:55:28.152Z,23.30
2022-08-25T23:05:31.311Z,23.20
2022-08-25T23:15:33.562Z,23.20
2022-08-25T23:25:36.231Z,23.20
2022-08-25T23:35:38.473Z,22.90
2022-08-25T23:45:42.339Z,23.00
2022-08-25T23:55:51.415Z,22.90
